createdAt,value
2022-08-25T00:00:12.532Z,10.50
2022-08-25T00:02:39.541Z,8.83
2022-08-25T00:05:08.081Z,8.70
2022-08-25T00:07:37.079Z,12.03
2022-08-25T00:10:07.247Z,11.57
2022-08-25T00:12:34.361Z,11.53
2022-08-25T00:15:01.341Z,14.73
2022-08-25T00:17:28.717Z,21.43
2022-08-25T00:19:55.734Z,18.27
2022-08-25T00:22:22.803Z,12.47
2022-08-25T00:24:49.780Z,21.03
2022-08-25T00:27:17.200Z,14.73
2022-08-25T00:29:44.319Z,11.80
2022-08-25T00:32:11.386Z,10.77
2022-08-25T00:34:38.830Z,15.10
2022-08-25T00:37:09.424Z,10.40
2022-08-25T00:39:38.294Z,11.67
2022-08-25T00:42:07.457Z,28.17
2022-08-25T00:44:43.938Z,13.47
2022-08-25T00:47:11.644Z,27.63
2022-08-25T00:49:52.650Z,16.53
2022-08-25T00:52:30.267Z,11.10
2022-08-25T00:55:08.447Z,18.50
2022-08-25T00:58:21.083Z,19.67
2022-08-25T01:00:52.293Z,16.47
2022-08-25T01:03:20.855Z,13.40
2022-08-25T01:05:52.338Z,8.77
2022-08-25T01:08:22.777Z,20.37
2022-08-25T01:10:51.172Z,19.10
2022-08-25T01:13:27.131Z,20.80
2022-08-25T01:15:56.458Z,14.77
2022-08-25T01:18:24.502Z,14.50
2022-08-25T01:20:56.896Z,7.93
2022-08-25T01:23:25.401Z,16.87
2022-08-25T01:26:04.164Z,16.47
2022-08-25T01:28:32.269Z,13.70
2022-08-25T01:30:59.586Z,24.10
2022-08-25T01:33:26.834Z,18.53
2022-08-25T01:35:54.848Z,15.90
2022-08-25T01:38:22.999Z,13.07
2022-08-25T01:40:50.452Z,16.30
2022-08-25T01:43:31.984Z,15.30
2022-08-25T01:45:59.265Z,16.03
2022-08-25T01:48:26.765Z,12.20
2022-08-25T01:50:53.974Z,11.27
2022-08-25T01:53:29.740Z,15.07
2022-08-25T01:56:09.685Z,15.90
2022-08-25T01:58:41.607Z,11.93
2022-08-25T02:01:23.232Z,14.80
2022-08-25T02:03:53.549Z,11.17
2022-08-25T02:06:32.335Z,18.17
2022-08-25T02:09:07.728Z,18.10
2022-08-25T02:11:38.946Z,14.40
2022-08-25T02:14:07.790Z,16.83
2022-08-25T02:16:37.088Z,19.10
2022-08-25T02:19:11.912Z,22.30
2022-08-25T02:21:39.553Z,16.67
2022-08-25T02:24:08.172Z,23.77
2022-08-25T02:26:36.534Z,21.33
2022-08-25T02:29:06.167Z,17.33
2022-08-25T02:31:34.704Z,11.70
2022-08-25T02:34:02.403Z,12.67
2022-08-25T02:36:32.209Z,11.57
2022-08-25T02:39:00.525Z,17.40
2022-08-25T02:41:30.946Z,15.93
2022-08-25T02:44:00.998Z,10.13
2022-08-25T02:46:29.162Z,13.63
2022-08-25T02:48:56.234Z,10.87
2022-08-25T02:51:25.476Z,18.10
2022-08-25T02:53:53.574Z,12.60
2022-08-25T02:56:20.802Z,12.77
2022-08-25T02:58:48.317Z,17.10
2022-08-25T03:01:16.964Z,11.83
2022-08-25T03:03:47.062Z,14.93
2022-08-25T03:06:18.242Z,14.07
2022-08-25T03:08:45.529Z,15.33
2022-08-25T03:11:12.659Z,28.00
2022-08-25T03:13:40.097Z,12.07
2022-08-25T03:16:10.903Z,13.57
2022-08-25T03:18:40.769Z,18.10
2022-08-25T03:21:08.308Z,15.27
2022-08-25T03:23:35.581Z,23.90
2022-08-25T03:26:21.260Z,21.67
2022-08-25T03:28:48.327Z,12.30
2022-08-25T03:31:15.485Z,17.97
2022-08-25T03:33:43.039Z,14.20
2022-08-25T03:36:14.636Z,16.53
2022-08-25T03:38:42.247Z,31.10
2022-08-25T03:41:23.243Z,16.80
2022-08-25T03:43:51.016Z,19.90
2022-08-25T03:46:31.797Z,14.43
2022-08-25T03:49:02.264Z,23.73
2022-08-25T03:51:47.421Z,26.77
2022-08-25T03:54:20.000Z,17.03
2022-08-25T03:56:47.108Z,13.43
2022-08-25T03:59:14.168Z,13.93
2022-08-25T04:01:44.383Z,12.80
2022-08-25T04:04:14.051Z,23.43
2022-08-25T04:06:43.489Z,15.10
2022-08-25T04:09:11.796Z,29.53
2022-08-25T04:11:39.469Z,18.63
2022-08-25T04:14:09.951Z,22.80
2022-08-25T04:16:43.345Z,17.17
2022-08-25T04:19:10.870Z,23.47
2022-08-25T04:21:40.610Z,15.93
2022-08-25T04:24:10.633Z,21.20
2022-08-25T04:26:43.809Z,25.80
2022-08-25T04:29:13.432Z,20.50
2022-08-25T04:31:43.807Z,19.73
2022-08-25T04:34:28.811Z,21.70
2022-08-25T04:37:03.764Z,24.30
2022-08-25T04:39:31.319Z,30.23
2022-08-25T04:42:00.765Z,17.40
2022-08-25T04:44:29.956Z,18.93
2022-08-25T04:46:57.618Z,21.97
2022-08-25T04:49:24.957Z,19.10
2022-08-25T04:51:51.996Z,24.97
2022-08-25T04:54:22.109Z,19.73
2022-08-25T04:56:54.457Z,18.60
2022-08-25T04:59:29.497Z,20.00
2022-08-25T05:02:02.372Z,21.20
2022-08-25T05:04:31.454Z,16.43
2022-08-25T05:06:59.652Z,18.33
2022-08-25T05:09:27.556Z,22.13
2022-08-25T05:11:55.128Z,29.67
2022-08-25T05:14:26.389Z,24.30
2022-08-25T05:16:55.476Z,26.73
2022-08-25T05:19:24.272Z,17.00
2022-08-25T05:21:52.436Z,15.87
2022-08-25T05:24:21.009Z,23.17
2022-08-25T05:26:48.233Z,18.53
2022-08-25T05:29:15.699Z,18.90
2022-08-25T05:31:49.569Z,20.47
2022-08-25T05:34:19.070Z,18.40
2022-08-25T05:36:47.076Z,16.90
2022-08-25T05:39:14.582Z,26.83
2022-08-25T05:41:41.630Z,21.77
2022-08-25T05:44:08.786Z,31.10
2022-08-25T05:46:36.040Z,20.50
2022-08-25T05:49:03.245Z,21.80
2022-08-25T05:51:30.401Z,21.63
2022-08-25T05:53:57.479Z,16.40
2022-08-25T05:56:24.581Z,29.70
2022-08-25T05:58:51.644Z,25.70
2022-08-25T06:01:48.744Z,27.83
2022-08-25T06:04:17.810Z,33.20
2022-08-25T06:06:44.947Z,31.53
2022-08-25T06:09:12.532Z,34.50
2022-08-25T06:11:40.881Z,24.73
2022-08-25T06:14:11.498Z,29.70
2022-08-25T06:16:40.310Z,30.17
2022-08-25T06:19:10.628Z,26.57
2022-08-25T06:21:41.402Z,30.10
2022-08-25T06:24:15.242Z,20.73
2022-08-25T06:26:44.201Z,26.97
2022-08-25T06:29:14.287Z,27.23
2022-08-25T06:31:42.637Z,28.07
2022-08-25T06:34:11.078Z,31.57
2022-08-25T06:36:38.608Z,41.67
2022-08-25T06:39:05.768Z,32.30
2022-08-25T06:41:36.982Z,35.07
2022-08-25T06:44:05.724Z,36.67
2022-08-25T06:46:36.383Z,30.80
2022-08-25T06:49:08.209Z,34.43
2022-08-25T06:51:36.430Z,34.90
2022-08-25T06:54:06.512Z,37.90
2022-08-25T06:56:34.327Z,46.27
2022-08-25T06:59:03.676Z,32.70
2022-08-25T07:01:32.263Z,30.10
2022-08-25T07:04:02.905Z,28.63
2022-08-25T07:06:35.399Z,28.10
2022-08-25T07:09:06.292Z,39.73
2022-08-25T07:11:34.459Z,31.17
2022-08-25T07:14:08.405Z,34.13
2022-08-25T07:16:36.586Z,29.40
2022-08-25T07:19:06.111Z,28.03
2022-08-25T07:21:39.056Z,35.90
2022-08-25T07:24:13.417Z,31.00
2022-08-25T07:26:43.578Z,27.47
2022-08-25T07:29:19.725Z,22.77
2022-08-25T07:31:47.278Z,25.73
2022-08-25T07:34:33.699Z,31.63
2022-08-25T07:37:04.465Z,28.77
2022-08-25T07:39:33.800Z,31.23
2022-08-25T07:42:01.052Z,27.90
2022-08-25T07:44:29.036Z,26.53
2022-08-25T07:46:56.735Z,24.00
2022-08-25T07:49:26.420Z,32.33
2022-08-25T07:52:05.250Z,31.10
2022-08-25T07:54:37.766Z,24.30
2022-08-25T07:57:08.137Z,23.20
2022-08-25T07:59:40.138Z,27.77
2022-08-25T08:02:17.878Z,30.43
2022-08-25T08:04:53.779Z,30.27
2022-08-25T08:07:43.122Z,26.60
2022-08-25T08:13:02.676Z,25.67
2022-08-25T08:15:30.288Z,22.23
2022-08-25T08:17:59.744Z,22.90
2022-08-25T08:20:27.280Z,27.23
2022-08-25T08:22:55.401Z,22.43
2022-08-25T08:25:26.685Z,22.60
2022-08-25T08:27:56.810Z,23.97
2022-08-25T08:30:26.244Z,25.33
2022-08-25T08:33:11.801Z,25.50
2022-08-25T08:35:43.091Z,22.10
2022-08-25T08:38:17.284Z,29.40
2022-08-25T08:41:40.194Z,21.57
2022-08-25T08:44:37.097Z,29.80
2022-08-25T08:47:10.714Z,22.67
2022-08-25T08:49:59.121Z,27.10
2022-08-25T08:52:40.857Z,19.73
2022-08-25T08:55:40.283Z,21.40
2022-08-25T08:58:18.801Z,27.00
2022-08-25T09:00:52.612Z,23.53
2022-08-25T09:03:41.550Z,22.40
2022-08-25T09:06:19.077Z,18.63
2022-08-25T09:08:46.569Z,14.33
2022-08-25T09:11:23.704Z,15.20
2022-08-25T09:14:10.896Z,18.70
2022-08-25T09:17:31.112Z,17.90
2022-08-25T09:20:25.237Z,11.50
2022-08-25T09:23:48.506Z,10.47
2022-08-25T09:27:05.872Z,13.23
2022-08-25T09:30:07.459Z,16.67
2022-08-25T09:32:48.676Z,12.77
2022-08-25T09:35:26.253Z,18.60
2022-08-25T09:38:11.253Z,27.50
2022-08-25T09:40:46.588Z,15.87
2022-08-25T09:43:32.183Z,8.70
2022-08-25T09:46:27.151Z,22.57
2022-08-25T09:49:16.790Z,13.20
2022-08-25T09:51:44.651Z,13.30
2022-08-25T09:54:17.980Z,14.60
2022-08-25T09:57:00.582Z,19.67
2022-08-25T09:59:35.714Z,14.00
2022-08-25T10:02:26.408Z,10.23
2022-08-25T10:04:54.579Z,12.17
2022-08-25T10:07:40.044Z,26.13
2022-08-25T10:10:32.407Z,10.27
2022-08-25T10:13:01.789Z,12.33
2022-08-25T10:15:36.964Z,23.17
2022-08-25T10:18:29.724Z,15.53
2022-08-25T10:21:15.955Z,35.43
2022-08-25T10:23:52.816Z,28.83
2022-08-25T10:26:41.552Z,9.43
2022-08-25T10:29:41.088Z,9.37
2022-08-25T10:32:40.393Z,8.77
2022-08-25T10:35:16.686Z,13.30
2022-08-25T10:38:21.699Z,7.33
2022-08-25T10:41:16.967Z,12.00
2022-08-25T10:44:34.081Z,12.73
2022-08-25T10:47:48.830Z,17.33
2022-08-25T10:50:33.956Z,13.30
2022-08-25T10:53:11.224Z,12.73
2022-08-25T10:55:55.288Z,13.90
2022-08-25T10:58:56.299Z,10.20
2022-08-25T11:01:45.553Z,9.93
2022-08-25T11:04:31.945Z,21.83
2022-08-25T11:07:34.951Z,8.90
2022-08-25T11:10:20.554Z,9.97
2022-08-25T11:12:57.123Z,6.20
2022-08-25T11:15:37.736Z,9.97
2022-08-25T11:18:14.021Z,6.83
2022-08-25T11:21:09.594Z,11.43
2022-08-25T11:23:59.205Z,17.73
2022-08-25T11:26:36.991Z,13.07
2022-08-25T11:29:17.152Z,12.13
2022-08-25T11:31:53.319Z,13.53
2022-08-25T11:34:22.261Z,19.13
2022-08-25T11:37:01.098Z,12.03
2022-08-25T11:39:52.287Z,13.17
2022-08-25T11:42:35.413Z,22.90
2022-08-25T11:45:35.285Z,20.70
2022-08-25T11:48:20.753Z,13.07
2022-08-25T11:51:27.583Z,28.00
2022-08-25T11:54:21.408Z,13.53
2022-08-25T11:57:04.328Z,12.07
2022-08-25T11:59:50.195Z,25.53
2022-08-25T12:02:37.868Z,23.60
2022-08-25T12:05:30.328Z,16.10
2022-08-25T12:08:22.341Z,31.53
2022-08-25T12:10:52.375Z,21.17
2022-08-25T12:13:39.236Z,27.37
2022-08-25T12:16:07.127Z,13.77
2022-08-25T12:18:34.087Z,12.67
2022-08-25T12:21:02.370Z,21.23
2022-08-25T12:24:11.513Z,13.77
2022-08-25T12:26:58.413Z,23.97
2022-08-25T12:29:43.723Z,20.03
2022-08-25T12:32:45.800Z,24.03
2022-08-25T12:35:31.333Z,13.33
2022-08-25T12:38:15.800Z,15.77
2022-08-25T12:40:42.957Z,29.00
2022-08-25T12:43:33.310Z,22.17
2022-08-25T12:46:20.454Z,29.43
2022-08-25T12:49:31.088Z,24.43
2022-08-25T12:52:22.000Z,18.53
2022-08-25T12:55:06.232Z,18.50
2022-08-25T12:57:47.606Z,24.27
2022-08-25T13:00:32.122Z,14.43
2022-08-25T13:03:24.451Z,11.10
2022-08-25T13:06:53.628Z,13.03
2022-08-25T13:09:58.825Z,31.73
2022-08-25T13:12:44.569Z,19.20
2022-08-25T13:15:47.033Z,11.67
2022-08-25T13:18:27.943Z,14.03
2022-08-25T13:21:37.116Z,20.33
2022-08-25T13:24:12.581Z,26.60
2022-08-25T13:26:47.200Z,16.43
2022-08-25T13:29:27.857Z,7.63
2022-08-25T13:32:09.614Z,15.67
2022-08-25T13:34:42.677Z,25.27
2022-08-25T13:37:29.710Z,11.63
2022-08-25T13:40:20.090Z,19.93
2022-08-25T13:42:57.462Z,16.30
2022-08-25T13:45:30.089Z,11.20
2022-08-25T13:47:59.658Z,12.87
2022-08-25T13:50:26.897Z,8.73
2022-08-25T13:53:14.330Z,24.20
2022-08-25T13:55:53.621Z,17.37
2022-08-25T13:58:39.353Z,21.73
2022-08-25T14:01:49.294Z,16.23
2022-08-25T14:04:50.585Z,16.83
2022-08-25T14:07:22.272Z,17.47
2022-08-25T14:10:07.929Z,10.50
2022-08-25T14:12:46.344Z,14.40
2022-08-25T14:15:22.313Z,9.93
2022-08-25T14:18:19.406Z,16.27
2022-08-25T14:20:51.977Z,17.93
2022-08-25T14:23:24.769Z,17.63
2022-08-25T14:25:54.056Z,18.83
2022-08-25T14:28:25.637Z,31.47
2022-08-25T14:31:11.078Z,15.70
2022-08-25T14:33:54.047Z,18.90
2022-08-25T14:36:21.177Z,27.27
2022-08-25T14:38:54.581Z,12.57
2022-08-25T14:41:24.172Z,13.63
2022-08-25T14:43:51.272Z,20.00
2022-08-25T14:46:25.867Z,18.60
2022-08-25T14:49:02.132Z,14.57
2022-08-25T14:51:36.187Z,13.00
2022-08-25T14:54:07.639Z,15.43
2022-08-25T14:56:37.712Z,13.13
2022-08-25T14:59:10.043Z,18.57
2022-08-25T15:01:37.433Z,23.27
2022-08-25T15:04:17.575Z,14.63
2022-08-25T15:06:45.851Z,16.70
2022-08-25T15:09:16.749Z,28.67
2022-08-25T15:11:51.104Z,14.87
2022-08-25T15:14:29.018Z,17.43
2022-08-25T15:17:01.741Z,22.60
2022-08-25T15:19:29.263Z,24.57
2022-08-25T15:21:58.072Z,15.97
2022-08-25T15:24:27.552Z,16.10
2022-08-25T15:27:01.104Z,25.77
2022-08-25T15:29:31.076Z,11.70
2022-08-25T15:32:00.352Z,14.07
2022-08-25T15:34:28.543Z,21.57
2022-08-25T15:36:57.975Z,18.83
2022-08-25T15:39:26.213Z,24.53
2022-08-25T15:41:53.375Z,11.23
2022-08-25T15:44:23.304Z,15.53
2022-08-25T15:46:52.216Z,17.40
2022-08-25T15:49:20.731Z,20.00
2022-08-25T15:51:55.096Z,17.03
2022-08-25T15:54:26.715Z,20.30
2022-08-25T15:56:55.864Z,20.67
2022-08-25T15:59:25.109Z,20.03
2022-08-25T16:01:53.645Z,17.50
2022-08-25T16:04:27.318Z,18.60
2022-08-25T16:06:55.634Z,19.23
2022-08-25T16:09:23.646Z,19.60
2022-08-25T16:11:56.770Z,29.27
2022-08-25T16:14:26.357Z,17.10
2022-08-25T16:16:58.550Z,30.30
2022-08-25T16:19:28.903Z,21.97
2022-08-25T16:21:57.274Z,22.10
2022-08-25T16:24:24.433Z,16.17
2022-08-25T16:26:52.385Z,28.13
2022-08-25T16:29:22.783Z,19.03
2022-08-25T16:31:53.271Z,27.63
2022-08-25T16:34:24.527Z,26.33
2022-08-25T16:36:53.347Z,30.17
2022-08-25T16:39:22.199Z,21.37
2022-08-25T16:41:52.240Z,33.70
2022-08-25T16:44:22.844Z,26.27
2022-08-25T16:46:54.290Z,34.90
2022-08-25T16:49:24.166Z,18.70
2022-08-25T16:51:57.096Z,32.10
2022-08-25T16:54:44.871Z,40.80
2022-08-25T16:57:12.729Z,32.63
2022-08-25T16:59:39.879Z,32.57
2022-08-25T17:02:07.368Z,48.47
2022-08-25T17:04:34.520Z,27.67
2022-08-25T17:07:02.105Z,34.07
2022-08-25T17:09:29.908Z,28.23
2022-08-25T17:11:57.395Z,23.77
2022-08-25T17:14:24.776Z,49.67
2022-08-25T17:16:55.192Z,39.40
2022-08-25T17:19:24.982Z,16.43
2022-08-25T17:21:54.521Z,21.67
2022-08-25T17:24:29.192Z,37.90
2022-08-25T17:26:57.529Z,26.27
2022-08-25T17:29:24.537Z,34.27
2022-08-25T17:31:51.923Z,40.70
2022-08-25T17:34:23.189Z,28.30
2022-08-25T17:36:51.764Z,34.80
2022-08-25T17:39:22.283Z,51.33
2022-08-25T17:41:50.649Z,27.87
2022-08-25T17:44:18.745Z,25.17
2022-08-25T17:46:47.998Z,33.17
2022-08-25T17:49:17.214Z,25.43
2022-08-25T17:51:44.365Z,29.10
2022-08-25T17:54:13.244Z,22.53
2022-08-25T17:56:40.856Z,32.10
2022-08-25T17:59:08.060Z,32.47
2022-08-25T18:01:40.281Z,26.27
2022-08-25T18:04:17.597Z,30.60
2022-08-25T18:06:49.609Z,36.73
2022-08-25T18:09:17.820Z,28.97
2022-08-25T18:11:45.676Z,39.27
2022-08-25T18:14:14.473Z,34.93
2022-08-25T18:16:42.261Z,19.70
2022-08-25T18:19:11.001Z,38.57
2022-08-25T18:21:38.756Z,47.73
2022-08-25T18:24:08.074Z,27.10
2022-08-25T18:26:35.630Z,33.50
2022-08-25T18:29:03.772Z,24.00
2022-08-25T18:31:30.985Z,38.63
2022-08-25T18:33:59.405Z,24.00
2022-08-25T18:36:26.611Z,43.00
2022-08-25T18:39:13.504Z,56.30
2022-08-25T18:41:42.679Z,30.90
2022-08-25T18:44:12.240Z,28.00
2022-08-25T18:46:42.824Z,32.67
2022-08-25T18:49:15.873Z,32.60
2022-08-25T18:51:45.055Z,39.17
2022-08-25T18:54:23.133Z,34.63
2022-08-25T18:56:54.654Z,25.43
2022-08-25T18:59:23.822Z,39.97
2022-08-25T19:01:53.261Z,34.63
2022-08-25T19:04:20.924Z,36.97
2022-08-25T19:06:55.708Z,29.60
2022-08-25T19:09:22.973Z,33.27
2022-08-25T19:11:50.110Z,31.87
2022-08-25T19:14:17.162Z,28.80
2022-08-25T19:16:45.779Z,30.40
2022-08-25T19:19:14.373Z,34.03
2022-08-25T19:21:42.336Z,34.03
2022-08-25T19:24:12.664Z,43.13
2022-08-25T19:26:40.192Z,24.37
2022-08-25T19:29:15.294Z,22.73
2022-08-25T19:31:45.093Z,31.80
2022-08-25T19:34:28.131Z,17.83
2022-08-25T19:37:00.679Z,18.20
2022-08-25T19:39:28.974Z,13.90
2022-08-25T19:41:58.520Z,26.97
2022-08-25T19:44:26.476Z,24.10
2022-08-25T19:46:56.293Z,24.87
2022-08-25T19:49:34.316Z,29.33
2022-08-25T19:52:10.504Z,21.20
2022-08-25T19:54:45.843Z,29.13
2022-08-25T19:57:20.778Z,34.43
2022-08-25T19:59:55.538Z,20.57
2022-08-25T20:02:25.792Z,33.30
2022-08-25T20:04:59.971Z,25.30
2022-08-25T20:07:30.430Z,32.17
2022-08-25T20:09:59.597Z,34.20
2022-08-25T20:12:28.497Z,33.33
2022-08-25T20:14:56.503Z,33.50
2022-08-25T20:17:26.364Z,25.60
2022-08-25T20:20:01.189Z,32.20
2022-08-25T20:22:32.734Z,36.47
2022-08-25T20:25:13.410Z,37.67
2022-08-25T20:27:54.111Z,77.23
2022-08-25T20:30:26.100Z,59.27
2022-08-25T20:32:55.483Z,38.40
2022-08-25T20:35:26.492Z,23.40
2022-08-25T20:37:55.888Z,22.43
2022-08-25T20:40:26.488Z,46.97
2022-08-25T20:42:54.959Z,38.53
2022-08-25T20:45:22.965Z,32.67
2022-08-25T20:47:50.578Z,43.97
2022-08-25T20:50:18.882Z,31.73
2022-08-25T20:52:46.193Z,27.37
2022-08-25T20:55:17.573Z,33.93
2022-08-25T20:57:46.646Z,32.40
2022-08-25T21:00:15.357Z,23.53
2022-08-25T21:02:43.496Z,30.20
2022-08-25T21:05:10.587Z,28.03
2022-08-25T21:07:37.788Z,33.00
2022-08-25T21:10:14.425Z,23.93
2022-08-25T21:12:42.564Z,32.63
2022-08-25T21:15:11.304Z,34.57
2022-08-25T21:17:39.461Z,28.00
2022-08-25T21:20:08.791Z,29.07
2022-08-25T21:22:37.854Z,28.00
2022-08-25T21:25:05.905Z,45.80
2022-08-25T21:27:33.867Z,38.73
2022-08-25T21:30:01.131Z,27.70
2022-08-25T21:32:28.284Z,23.17
2022-08-25T21:34:56.406Z,23.40
2022-08-25T21:37:23.971Z,28.10
2022-08-25T21:39:52.054Z,28.40
2022-08-25T21:42:22.382Z,29.93
2022-08-25T21:44:50.659Z,41.87
2022-08-25T21:47:46.012Z,23.70
2022-08-25T21:50:13.920Z,37.70
2022-08-25T21:52:42.435Z,43.03
2022-08-25T21:55:16.012Z,26.57
2022-08-25T21:57:43.977Z,17.40
2022-08-25T22:00:13.489Z,25.23
2022-08-25T22:02:43.894Z,32.10
2022-08-25T22:05:11.993Z,28.13
2022-08-25T22:07:44.105Z,28.03
2022-08-25T22:10:16.652Z,21.70
2022-08-25T22:12:47.217Z,21.90
2022-08-25T22:15:15.633Z,25.23
2022-08-25T22:17:42.748Z,32.03
2022-08-25T22:20:10.958Z,36.03
2022-08-25T22:22:38.192Z,27.40
2022-08-25T22:25:05.986Z,23.53
2022-08-25T22:27:36.026Z,23.27
2022-08-25T22:30:06.670Z,22.83
2022-08-25T22:32:33.985Z,30.03
2022-08-25T22:35:01.587Z,38.13
2022-08-25T22:37:28.755Z,26.33
2022-08-25T22:39:57.720Z,25.40
2022-08-25T22:42:25.498Z,23.93
2022-08-25T22:44:54.022Z,30.30
2022-08-25T22:47:21.244Z,24.73
2022-08-25T22:49:49.604Z,33.07
2022-08-25T22:52:19.432Z,26.37
2022-08-25T22:54:46.634Z,17.83
2022-08-25T22:57:14.016Z,17.20
2022-08-25T22:59:41.218Z,22.20
2022-08-25T23:02:08.868Z,17.80
2022-08-25T23:04:41.149Z,25.13
2022-08-25T23:07:11.849Z,28.43
2022-08-25T23:09:39.123Z,21.10
2022-08-25T23:12:06.803Z,22.13
2022-08-25T23:14:42.051Z,16.13
2022-08-25T23:17:12.246Z,18.13
2022-08-25T23:19:39.378Z,21.13
2022-08-25T23:22:09.557Z,25.83
2022-08-25T23:24:47.527Z,24.37
2022-08-25T23:27:19.124Z,20.30
2022-08-25T23:29:49.967Z,27.73
2022-08-25T23:32:18.447Z,31.70
2022-08-25T23:34:46.583Z,34.43
2022-08-25T23:37:15.110Z,21.63
2022-08-25T23:39:45.662Z,24.63
2022-08-25T23:42:12.944Z,21.00
2022-08-25T23:44:40.651Z,24.10
2022-08-25T23:47:07.910Z,21.07
2022-08-25T23:49:39.943Z,30.30
2022-08-25T23:52:07.247Z,27.47
2022-08-25T23:54:34.434Z,29.50
2022-08-25T23:57:02.345Z,25.80
2022-08-25T23:59:29.426Z,17.23
